sensor_id;sensor_type;location;lat;lon;timestamp;temperature;humidity
1129;DHT22;553;51.038;7.216;2024-03-08T00:00:12;4.00;96.10
1129;DHT22;553;51.038;7.216;2024-03-08T00:02:42;4.00;96.20
1129;DHT22;553;51.038;7.216;2024-03-08T00:05:09;4.00;96.20
1129;DHT22;553;51.038;7.216;2024-03-08T00:07:36;4.00;96.20
1129;DHT22;553;51.038;7.216;2024-03-08T00:10:04;4.00;96.20
1129;DHT22;553;51.038;7.216;2024-03-08T00:12:31;3.90;96.20
1129;DHT22;553;51.038;7.216;2024-03-08T00:14:58;3.90;96.30
1129;DHT22;553;51.038;7.216;2024-03-08T00:17:25;3.90;96.70
1129;DHT22;553;51.038;7.216;2024-03-08T00:19:54;3.80;96.90
1129;DHT22;553;51.038;7.216;2024-03-08T00:22:20;3.80;97.10
1129;DHT22;553;51.038;7.216;2024-03-08T00:24:48;3.80;97.00
1129;DHT22;553;51.038;7.216;2024-03-08T00:27:17;3.70;96.90
1129;DHT22;553;51.038;7.216;2024-03-08T00:29:47;3.70;97.20
1129;DHT22;553;51.038;7.216;2024-03-08T00:32:14;3.70;97.20
1129;DHT22;553;51.038;7.216;2024-03-08T00:34:41;3.70;97.20
1129;DHT22;553;51.038;7.216;2024-03-08T00:37:07;3.70;97.30
1129;DHT22;553;51.038;7.216;2024-03-08T00:39:35;3.60;97.60
1129;DHT22;553;51.038;7.216;2024-03-08T00:42:01;3.60;97.70
1129;DHT22;553;51.038;7.216;2024-03-08T00:44:28;3.60;97.70
1129;DHT22;553;51.038;7.216;2024-03-08T00:46:55;3.60;97.80
1129;DHT22;553;51.038;7.216;2024-03-08T00:49:23;3.60;97.70
1129;DHT22;553;51.038;7.216;2024-03-08T00:51:49;3.60;97.60
1129;DHT22;553;51.038;7.216;2024-03-08T00:54:16;3.60;97.70
1129;DHT22;553;51.038;7.216;2024-03-08T00:56:43;3.60;97.80
1129;DHT22;553;51.038;7.216;2024-03-08T00:59:10;3.60;98.00
1129;DHT22;553;51.038;7.216;2024-03-08T01:01:37;3.60;98.00
1129;DHT22;553;51.038;7.216;2024-03-08T01:04:04;3.50;98.10
1129;DHT22;553;51.038;7.216;2024-03-08T01:06:30;3.60;98.20
1129;DHT22;553;51.038;7.216;2024-03-08T01:08:57;3.60;98.20
1129;DHT22;553;51.038;7.216;2024-03-08T01:11:24;3.60;98.30
1129;DHT22;553;51.038;7.216;2024-03-08T01:13:51;3.60;98.30
1129;DHT22;553;51.038;7.216;2024-03-08T01:16:20;3.60;98.50
1129;DHT22;553;51.038;7.216;2024-03-08T01:18:48;3.50;98.50
1129;DHT22;553;51.038;7.216;2024-03-08T01:21:15;3.50;98.60
1129;DHT22;553;51.038;7.216;2024-03-08T01:23:41;3.50;98.80
1129;DHT22;553;51.038;7.216;2024-03-08T01:26:08;3.50;98.90
1129;DHT22;553;51.038;7.216;2024-03-08T01:28:35;3.50;98.90
1129;DHT22;553;51.038;7.216;2024-03-08T01:31:02;3.50;98.80
1129;DHT22;553;51.038;7.216;2024-03-08T01:33:30;3.50;99.00
1129;DHT22;553;51.038;7.216;2024-03-08T01:35:58;3.40;99.10
1129;DHT22;553;51.038;7.216;2024-03-08T01:38:25;3.40;99.10
1129;DHT22;553;51.038;7.216;2024-03-08T01:40:52;3.40;99.20
1129;DHT22;553;51.038;7.216;2024-03-08T01:43:26;3.40;99.20
1129;DHT22;553;51.038;7.216;2024-03-08T01:45:58;3.40;99.20
1129;DHT22;553;51.038;7.216;2024-03-08T01:48:29;3.40;99.20
1129;DHT22;553;51.038;7.216;2024-03-08T01:50:57;3.50;99.20
1129;DHT22;553;51.038;7.216;2024-03-08T01:53:24;3.40;99.10
1129;DHT22;553;51.038;7.216;2024-03-08T01:55:56;3.40;99.20
1129;DHT22;553;51.038;7.216;2024-03-08T01:58:27;3.40;99.20
1129;DHT22;553;51.038;7.216;2024-03-08T02:00:56;3.40;99.30
1129;DHT22;553;51.038;7.216;2024-03-08T02:03:23;3.30;99.20
1129;DHT22;553;51.038;7.216;2024-03-08T02:05:51;3.40;99.40
1129;DHT22;553;51.038;7.216;2024-03-08T02:08:21;3.40;99.40
1129;DHT22;553;51.038;7.216;2024-03-08T02:10:50;3.30;99.40
1129;DHT22;553;51.038;7.216;2024-03-08T02:13:17;3.30;99.30
1129;DHT22;553;51.038;7.216;2024-03-08T02:15:56;3.40;99.30
1129;DHT22;553;51.038;7.216;2024-03-08T02:18:23;3.30;99.20
1129;DHT22;553;51.038;7.216;2024-03-08T02:20:58;3.40;99.30
1129;DHT22;553;51.038;7.216;2024-03-08T02:23:26;3.30;99.10
1129;DHT22;553;51.038;7.216;2024-03-08T02:25:55;3.30;99.10
1129;DHT22;553;51.038;7.216;2024-03-08T02:28:23;3.40;99.10
1129;DHT22;553;51.038;7.216;2024-03-08T02:30:52;3.30;98.90
1129;DHT22;553;51.038;7.216;2024-03-08T02:36:39;3.30;99.00
1129;DHT22;553;51.038;7.216;2024-03-08T02:39:05;3.40;98.70
1129;DHT22;553;51.038;7.216;2024-03-08T02:41:32;3.30;98.90
1129;DHT22;553;51.038;7.216;2024-03-08T02:43:59;3.30;99.20
1129;DHT22;553;51.038;7.216;2024-03-08T02:46:26;3.30;99.20
1129;DHT22;553;51.038;7.216;2024-03-08T02:48:54;3.30;99.10
1129;DHT22;553;51.038;7.216;2024-03-08T02:51:20;3.30;99.00
1129;DHT22;553;51.038;7.216;2024-03-08T02:53:47;3.30;99.00
1129;DHT22;553;51.038;7.216;2024-03-08T02:56:15;3.30;99.00
1129;DHT22;553;51.038;7.216;2024-03-08T02:58:43;3.30;99.00
1129;DHT22;553;51.038;7.216;2024-03-08T03:01:15;3.30;98.90
1129;DHT22;553;51.038;7.216;2024-03-08T03:03:42;3.30;99.10
1129;DHT22;553;51.038;7.216;2024-03-08T03:06:09;3.30;99.00
1129;DHT22;553;51.038;7.216;2024-03-08T03:08:36;3.30;98.90
1129;DHT22;553;51.038;7.216;2024-03-08T03:11:03;3.30;99.10
1129;DHT22;553;51.038;7.216;2024-03-08T03:13:30;3.30;99.10
1129;DHT22;553;51.038;7.216;2024-03-08T03:15:56;3.20;99.00
1129;DHT22;553;51.038;7.216;2024-03-08T03:18:24;3.30;99.20
1129;DHT22;553;51.038;7.216;2024-03-08T03:20:52;3.30;99.20
1129;DHT22;553;51.038;7.216;2024-03-08T03:23:19;3.20;99.20
1129;DHT22;553;51.038;7.216;2024-03-08T03:25:47;3.20;99.20
1129;DHT22;553;51.038;7.216;2024-03-08T03:28:14;3.20;99.10
1129;DHT22;553;51.038;7.216;2024-03-08T03:30:46;3.30;99.20
1129;DHT22;553;51.038;7.216;2024-03-08T03:33:13;3.30;99.30
1129;DHT22;553;51.038;7.216;2024-03-08T03:35:42;3.20;99.40
1129;DHT22;553;51.038;7.216;2024-03-08T03:38:11;3.20;99.30
1129;DHT22;553;51.038;7.216;2024-03-08T03:40:39;3.20;99.20
1129;DHT22;553;51.038;7.216;2024-03-08T03:43:07;3.10;99.30
1129;DHT22;553;51.038;7.216;2024-03-08T03:45:35;3.10;99.40
1129;DHT22;553;51.038;7.216;2024-03-08T03:48:04;3.10;99.30
1129;DHT22;553;51.038;7.216;2024-03-08T03:50:33;3.20;99.40
1129;DHT22;553;51.038;7.216;2024-03-08T03:53:04;3.10;99.50
1129;DHT22;553;51.038;7.216;2024-03-08T03:55:31;3.10;99.40
1129;DHT22;553;51.038;7.216;2024-03-08T03:57:59;3.20;99.40
1129;DHT22;553;51.038;7.216;2024-03-08T04:00:27;3.20;99.40
1129;DHT22;553;51.038;7.216;2024-03-08T04:02:54;3.20;99.50
1129;DHT22;553;51.038;7.216;2024-03-08T04:05:21;3.20;99.40
1129;DHT22;553;51.038;7.216;2024-03-08T04:07:48;3.20;99.40
1129;DHT22;553;51.038;7.216;2024-03-08T04:10:15;3.20;99.40
1129;DHT22;553;51.038;7.216;2024-03-08T04:12:41;3.10;99.50
1129;DHT22;553;51.038;7.216;2024-03-08T04:15:09;3.10;99.60
1129;DHT22;553;51.038;7.216;2024-03-08T04:17:37;3.10;99.70
1129;DHT22;553;51.038;7.216;2024-03-08T04:20:05;3.00;99.70
1129;DHT22;553;51.038;7.216;2024-03-08T04:22:37;3.10;99.70
1129;DHT22;553;51.038;7.216;2024-03-08T04:25:04;3.00;99.80
1129;DHT22;553;51.038;7.216;2024-03-08T04:27:32;3.10;99.90
1129;DHT22;553;51.038;7.216;2024-03-08T04:29:59;3.00;99.90
1129;DHT22;553;51.038;7.216;2024-03-08T04:32:26;3.00;99.90
1129;DHT22;553;51.038;7.216;2024-03-08T04:34:54;3.00;99.90
1129;DHT22;553;51.038;7.216;2024-03-08T04:37:21;2.90;99.90
1129;DHT22;553;51.038;7.216;2024-03-08T04:39:48;3.00;99.90
1129;DHT22;553;51.038;7.216;2024-03-08T04:42:15;3.00;99.90
1129;DHT22;553;51.038;7.216;2024-03-08T04:44:44;3.00;99.90
1129;DHT22;553;51.038;7.216;2024-03-08T04:47:11;3.00;99.90
1129;DHT22;553;51.038;7.216;2024-03-08T04:49:38;3.00;99.90
1129;DHT22;553;51.038;7.216;2024-03-08T04:52:05;3.00;99.90
1129;DHT22;553;51.038;7.216;2024-03-08T04:54:33;3.00;99.90
1129;DHT22;553;51.038;7.216;2024-03-08T04:57:01;3.00;99.90
1129;DHT22;553;51.038;7.216;2024-03-08T04:59:32;3.00;99.90
1129;DHT22;553;51.038;7.216;2024-03-08T05:01:59;3.00;99.90
1129;DHT22;553;51.038;7.216;2024-03-08T05:04:26;3.00;99.90
1129;DHT22;553;51.038;7.216;2024-03-08T05:06:52;3.00;99.90
1129;DHT22;553;51.038;7.216;2024-03-08T05:09:20;2.90;99.90
1129;DHT22;553;51.038;7.216;2024-03-08T05:11:47;3.00;99.90
1129;DHT22;553;51.038;7.216;2024-03-08T05:14:14;2.90;99.90
1129;DHT22;553;51.038;7.216;2024-03-08T05:16:47;3.00;99.90
1129;DHT22;553;51.038;7.216;2024-03-08T05:19:17;2.90;99.90
1129;DHT22;553;51.038;7.216;2024-03-08T05:21:49;2.90;99.90
1129;DHT22;553;51.038;7.216;2024-03-08T05:24:16;2.90;99.90
1129;DHT22;553;51.038;7.216;2024-03-08T05:26:45;2.90;99.90
1129;DHT22;553;51.038;7.216;2024-03-08T05:29:12;2.80;99.90
1129;DHT22;553;51.038;7.216;2024-03-08T05:34:14;2.90;99.90
1129;DHT22;553;51.038;7.216;2024-03-08T05:36:42;2.90;99.90
1129;DHT22;553;51.038;7.216;2024-03-08T05:39:13;2.90;99.90
1129;DHT22;553;51.038;7.216;2024-03-08T05:41:40;2.90;99.90
1129;DHT22;553;51.038;7.216;2024-03-08T05:44:08;2.90;99.90
1129;DHT22;553;51.038;7.216;2024-03-08T05:46:35;2.90;99.90
1129;DHT22;553;51.038;7.216;2024-03-08T05:49:03;2.90;99.90
1129;DHT22;553;51.038;7.216;2024-03-08T05:51:33;2.90;99.90
1129;DHT22;553;51.038;7.216;2024-03-08T05:54:04;2.90;99.90
1129;DHT22;553;51.038;7.216;2024-03-08T05:56:33;2.90;99.90
1129;DHT22;553;51.038;7.216;2024-03-08T05:59:00;2.90;99.90
1129;DHT22;553;51.038;7.216;2024-03-08T06:01:27;2.90;99.90
1129;DHT22;553;51.038;7.216;2024-03-08T06:03:54;2.90;99.90
1129;DHT22;553;51.038;7.216;2024-03-08T06:06:25;2.90;99.90
1129;DHT22;553;51.038;7.216;2024-03-08T06:08:52;2.90;99.90
1129;DHT22;553;51.038;7.216;2024-03-08T06:11:20;2.90;99.90
1129;DHT22;553;51.038;7.216;2024-03-08T06:13:47;2.90;99.90
1129;DHT22;553;51.038;7.216;2024-03-08T06:16:15;2.90;99.90
1129;DHT22;553;51.038;7.216;2024-03-08T06:18:42;2.90;99.90
1129;DHT22;553;51.038;7.216;2024-03-08T06:21:09;2.90;99.90
1129;DHT22;553;51.038;7.216;2024-03-08T06:23:38;2.90;99.90
1129;DHT22;553;51.038;7.216;2024-03-08T06:26:05;2.90;99.90
1129;DHT22;553;51.038;7.216;2024-03-08T06:28:32;2.90;99.90
1129;DHT22;553;51.038;7.216;2024-03-08T06:30:59;2.90;99.90
1129;DHT22;553;51.038;7.216;2024-03-08T06:33:26;2.90;99.90
1129;DHT22;553;51.038;7.216;2024-03-08T06:35:54;2.90;99.90
1129;DHT22;553;51.038;7.216;2024-03-08T06:38:25;2.90;99.90
1129;DHT22;553;51.038;7.216;2024-03-08T06:40:52;3.00;99.90
1129;DHT22;553;51.038;7.216;2024-03-08T06:43:19;3.00;99.90
1129;DHT22;553;51.038;7.216;2024-03-08T06:45:46;3.00;99.90
1129;DHT22;553;51.038;7.216;2024-03-08T06:48:18;3.20;99.90
1129;DHT22;553;51.038;7.216;2024-03-08T06:50:46;3.20;99.90
1129;DHT22;553;51.038;7.216;2024-03-08T06:53:14;3.20;99.90
1129;DHT22;553;51.038;7.216;2024-03-08T06:55:42;3.30;99.90
1129;DHT22;553;51.038;7.216;2024-03-08T06:58:11;3.30;99.90
1129;DHT22;553;51.038;7.216;2024-03-08T07:00:37;3.30;99.90
1129;DHT22;553;51.038;7.216;2024-03-08T07:03:08;3.40;99.90
1129;DHT22;553;51.038;7.216;2024-03-08T07:05:38;3.40;99.90
1129;DHT22;553;51.038;7.216;2024-03-08T07:08:07;3.40;99.90
1129;DHT22;553;51.038;7.216;2024-03-08T07:10:33;3.40;99.90
1129;DHT22;553;51.038;7.216;2024-03-08T07:13:01;3.50;99.90
1129;DHT22;553;51.038;7.216;2024-03-08T07:15:30;3.50;99.90
1129;DHT22;553;51.038;7.216;2024-03-08T07:17:58;3.60;99.90
1129;DHT22;553;51.038;7.216;2024-03-08T07:20:27;3.70;99.90
1129;DHT22;553;51.038;7.216;2024-03-08T07:22:55;3.70;99.90
1129;DHT22;553;51.038;7.216;2024-03-08T07:25:21;3.80;99.90
1129;DHT22;553;51.038;7.216;2024-03-08T07:27:53;3.80;99.90
1129;DHT22;553;51.038;7.216;2024-03-08T07:30:25;3.90;99.90
1129;DHT22;553;51.038;7.216;2024-03-08T07:33:11;3.90;99.90
1129;DHT22;553;51.038;7.216;2024-03-08T07:35:41;4.00;99.90
1129;DHT22;553;51.038;7.216;2024-03-08T07:38:09;4.10;99.90
1129;DHT22;553;51.038;7.216;2024-03-08T07:40:40;4.10;99.90
1129;DHT22;553;51.038;7.216;2024-03-08T07:43:11;4.10;99.70
1129;DHT22;553;51.038;7.216;2024-03-08T07:45:38;4.10;99.90
1129;DHT22;553;51.038;7.216;2024-03-08T07:48:05;4.10;99.90
1129;DHT22;553;51.038;7.216;2024-03-08T07:50:40;4.20;99.90
1129;DHT22;553;51.038;7.216;2024-03-08T07:53:07;4.30;99.90
1129;DHT22;553;51.038;7.216;2024-03-08T07:55:35;4.30;99.90
1129;DHT22;553;51.038;7.216;2024-03-08T07:58:03;4.50;99.30
1129;DHT22;553;51.038;7.216;2024-03-08T08:00:30;4.50;99.20
1129;DHT22;553;51.038;7.216;2024-03-08T08:03:00;4.50;99.00
1129;DHT22;553;51.038;7.216;2024-03-08T08:05:28;4.50;99.00
1129;DHT22;553;51.038;7.216;2024-03-08T08:07:54;4.60;99.10
1129;DHT22;553;51.038;7.216;2024-03-08T08:10:21;4.60;98.90
1129;DHT22;553;51.038;7.216;2024-03-08T08:12:49;4.70;98.90
1129;DHT22;553;51.038;7.216;2024-03-08T08:15:16;4.80;99.00
1129;DHT22;553;51.038;7.216;2024-03-08T08:17:44;4.90;98.70
1129;DHT22;553;51.038;7.216;2024-03-08T08:20:12;4.90;98.30
1129;DHT22;553;51.038;7.216;2024-03-08T08:22:39;5.00;97.60
1129;DHT22;553;51.038;7.216;2024-03-08T08:25:08;5.00;97.60
1129;DHT22;553;51.038;7.216;2024-03-08T08:27:35;5.20;97.60
1129;DHT22;553;51.038;7.216;2024-03-08T08:30:05;5.40;96.90
1129;DHT22;553;51.038;7.216;2024-03-08T08:32:35;5.70;96.00
1129;DHT22;553;51.038;7.216;2024-03-08T08:35:03;5.90;94.90
1129;DHT22;553;51.038;7.216;2024-03-08T08:37:32;6.20;94.60
1129;DHT22;553;51.038;7.216;2024-03-08T08:39:59;6.60;94.10
1129;DHT22;553;51.038;7.216;2024-03-08T08:42:32;6.90;93.30
1129;DHT22;553;51.038;7.216;2024-03-08T08:44:59;7.20;91.90
1129;DHT22;553;51.038;7.216;2024-03-08T08:47:40;7.30;90.90
1129;DHT22;553;51.038;7.216;2024-03-08T08:50:09;7.50;91.30
1129;DHT22;553;51.038;7.216;2024-03-08T08:52:39;7.70;90.40
1129;DHT22;553;51.038;7.216;2024-03-08T08:55:07;7.70;89.80
1129;DHT22;553;51.038;7.216;2024-03-08T08:57:34;7.60;89.80
1129;DHT22;553;51.038;7.216;2024-03-08T09:00:03;7.90;90.00
1129;DHT22;553;51.038;7.216;2024-03-08T09:02:37;7.90;88.60
1129;DHT22;553;51.038;7.216;2024-03-08T09:05:04;8.10;89.60
1129;DHT22;553;51.038;7.216;2024-03-08T09:07:31;8.10;89.00
1129;DHT22;553;51.038;7.216;2024-03-08T09:09:59;8.20;88.20
1129;DHT22;553;51.038;7.216;2024-03-08T09:12:33;8.50;87.40
1129;DHT22;553;51.038;7.216;2024-03-08T09:15:01;8.50;87.00
1129;DHT22;553;51.038;7.216;2024-03-08T09:17:27;8.60;87.10
1129;DHT22;553;51.038;7.216;2024-03-08T09:19:54;8.50;86.60
1129;DHT22;553;51.038;7.216;2024-03-08T09:22:21;8.50;87.10
1129;DHT22;553;51.038;7.216;2024-03-08T09:24:48;8.70;86.50
1129;DHT22;553;51.038;7.216;2024-03-08T09:27:15;8.90;86.40
1129;DHT22;553;51.038;7.216;2024-03-08T09:29:42;9.20;85.50
1129;DHT22;553;51.038;7.216;2024-03-08T09:32:10;9.10;86.10
1129;DHT22;553;51.038;7.216;2024-03-08T09:34:39;9.10;85.70
1129;DHT22;553;51.038;7.216;2024-03-08T09:37:07;9.10;85.70
1129;DHT22;553;51.038;7.216;2024-03-08T09:39:35;9.30;85.10
1129;DHT22;553;51.038;7.216;2024-03-08T09:42:02;9.30;84.60
1129;DHT22;553;51.038;7.216;2024-03-08T09:44:30;8.90;85.00
1129;DHT22;553;51.038;7.216;2024-03-08T09:46:58;9.20;86.40
1129;DHT22;553;51.038;7.216;2024-03-08T09:49:26;9.50;84.40
1129;DHT22;553;51.038;7.216;2024-03-08T09:51:52;9.50;84.20
1129;DHT22;553;51.038;7.216;2024-03-08T09:54:20;9.70;84.90
1129;DHT22;553;51.038;7.216;2024-03-08T09:56:52;9.70;83.80
1129;DHT22;553;51.038;7.216;2024-03-08T09:59:19;9.90;82.90
1129;DHT22;553;51.038;7.216;2024-03-08T10:01:49;9.70;83.70
1129;DHT22;553;51.038;7.216;2024-03-08T10:04:16;9.70;83.00
1129;DHT22;553;51.038;7.216;2024-03-08T10:06:45;9.60;83.00
1129;DHT22;553;51.038;7.216;2024-03-08T10:09:13;9.80;83.30
1129;DHT22;553;51.038;7.216;2024-03-08T10:11:40;10.20;82.80
1129;DHT22;553;51.038;7.216;2024-03-08T10:14:09;10.20;81.80
1129;DHT22;553;51.038;7.216;2024-03-08T10:16:40;10.50;84.00
1129;DHT22;553;51.038;7.216;2024-03-08T10:19:07;10.60;81.70
1129;DHT22;553;51.038;7.216;2024-03-08T10:21:34;10.70;80.90
1129;DHT22;553;51.038;7.216;2024-03-08T10:24:02;10.30;81.00
1129;DHT22;553;51.038;7.216;2024-03-08T10:26:30;10.20;81.00
1129;DHT22;553;51.038;7.216;2024-03-08T10:28:58;10.20;82.50
1129;DHT22;553;51.038;7.216;2024-03-08T10:31:25;10.20;81.80
1129;DHT22;553;51.038;7.216;2024-03-08T10:33:52;10.10;80.30
1129;DHT22;553;51.038;7.216;2024-03-08T10:36:19;10.00;80.80
1129;DHT22;553;51.038;7.216;2024-03-08T10:38:46;9.90;80.30
1129;DHT22;553;51.038;7.216;2024-03-08T10:41:15;9.90;81.10
1129;DHT22;553;51.038;7.216;2024-03-08T10:47:00;9.90;80.10
1129;DHT22;553;51.038;7.216;2024-03-08T10:49:38;10.00;79.60
1129;DHT22;553;51.038;7.216;2024-03-08T10:52:06;9.90;79.90
1129;DHT22;553;51.038;7.216;2024-03-08T10:54:37;10.10;80.20
1129;DHT22;553;51.038;7.216;2024-03-08T10:57:12;10.30;80.00
1129;DHT22;553;51.038;7.216;2024-03-08T10:59:40;10.30;80.30
1129;DHT22;553;51.038;7.216;2024-03-08T11:02:12;10.70;79.90
1129;DHT22;553;51.038;7.216;2024-03-08T11:04:46;10.60;79.00
1129;DHT22;553;51.038;7.216;2024-03-08T11:07:13;10.50;78.90
1129;DHT22;553;51.038;7.216;2024-03-08T11:09:44;10.40;78.50
1129;DHT22;553;51.038;7.216;2024-03-08T11:12:28;10.30;78.40
1129;DHT22;553;51.038;7.216;2024-03-08T11:15:12;10.30;78.80
1129;DHT22;553;51.038;7.216;2024-03-08T11:17:47;10.40;79.30
1129;DHT22;553;51.038;7.216;2024-03-08T11:20:19;10.60;77.90
1129;DHT22;553;51.038;7.216;2024-03-08T11:22:52;10.80;79.00
1129;DHT22;553;51.038;7.216;2024-03-08T11:25:40;10.70;77.10
1129;DHT22;553;51.038;7.216;2024-03-08T11:33:31;10.80;78.30
1129;DHT22;553;51.038;7.216;2024-03-08T11:36:19;11.00;77.30
1129;DHT22;553;51.038;7.216;2024-03-08T11:38:49;11.10;77.00
1129;DHT22;553;51.038;7.216;2024-03-08T11:41:21;11.10;77.30
1129;DHT22;553;51.038;7.216;2024-03-08T11:43:49;11.20;77.50
1129;DHT22;553;51.038;7.216;2024-03-08T11:46:17;11.40;76.80
1129;DHT22;553;51.038;7.216;2024-03-08T11:48:47;11.40;76.10
1129;DHT22;553;51.038;7.216;2024-03-08T11:51:15;11.20;77.10
1129;DHT22;553;51.038;7.216;2024-03-08T11:53:45;11.20;76.40
1129;DHT22;553;51.038;7.216;2024-03-08T11:56:14;11.10;76.30
1129;DHT22;553;51.038;7.216;2024-03-08T11:58:53;11.30;76.80
1129;DHT22;553;51.038;7.216;2024-03-08T12:01:20;11.20;75.80
1129;DHT22;553;51.038;7.216;2024-03-08T12:03:53;11.10;76.20
1129;DHT22;553;51.038;7.216;2024-03-08T12:06:20;11.30;77.90
1129;DHT22;553;51.038;7.216;2024-03-08T12:08:47;11.30;76.60
1129;DHT22;553;51.038;7.216;2024-03-08T12:11:18;11.40;76.90
1129;DHT22;553;51.038;7.216;2024-03-08T12:13:53;11.30;76.60
1129;DHT22;553;51.038;7.216;2024-03-08T12:16:20;11.30;76.40
1129;DHT22;553;51.038;7.216;2024-03-08T12:18:48;11.30;76.80
1129;DHT22;553;51.038;7.216;2024-03-08T12:21:17;11.60;77.50
1129;DHT22;553;51.038;7.216;2024-03-08T12:23:47;11.70;76.30
1129;DHT22;553;51.038;7.216;2024-03-08T12:26:24;11.70;76.20
1129;DHT22;553;51.038;7.216;2024-03-08T12:28:52;11.60;75.20
1129;DHT22;553;51.038;7.216;2024-03-08T12:31:21;11.60;76.50
1129;DHT22;553;51.038;7.216;2024-03-08T12:33:52;11.60;75.50
1129;DHT22;553;51.038;7.216;2024-03-08T12:36:23;11.40;75.40
1129;DHT22;553;51.038;7.216;2024-03-08T12:38:50;11.40;75.50
1129;DHT22;553;51.038;7.216;2024-03-08T12:41:18;11.70;76.80
1129;DHT22;553;51.038;7.216;2024-03-08T12:43:45;11.90;76.00
1129;DHT22;553;51.038;7.216;2024-03-08T12:46:22;11.90;74.40
1129;DHT22;553;51.038;7.216;2024-03-08T12:48:49;11.90;74.00
1129;DHT22;553;51.038;7.216;2024-03-08T12:51:20;11.70;76.20
1129;DHT22;553;51.038;7.216;2024-03-08T12:53:47;11.80;75.40
1129;DHT22;553;51.038;7.216;2024-03-08T12:56:20;11.70;74.40
1129;DHT22;553;51.038;7.216;2024-03-08T12:58:55;11.60;74.80
1129;DHT22;553;51.038;7.216;2024-03-08T13:01:23;11.50;74.60
1129;DHT22;553;51.038;7.216;2024-03-08T13:03:50;11.50;74.60
1129;DHT22;553;51.038;7.216;2024-03-08T13:06:17;11.50;75.50
1129;DHT22;553;51.038;7.216;2024-03-08T13:08:43;11.60;75.30
1129;DHT22;553;51.038;7.216;2024-03-08T13:11:11;11.60;74.70
1129;DHT22;553;51.038;7.216;2024-03-08T13:13:38;11.60;75.50
1129;DHT22;553;51.038;7.216;2024-03-08T13:16:08;11.80;75.60
1129;DHT22;553;51.038;7.216;2024-03-08T13:18:36;11.90;74.80
1129;DHT22;553;51.038;7.216;2024-03-08T13:21:03;11.70;74.70
1129;DHT22;553;51.038;7.216;2024-03-08T13:23:34;11.90;74.70
1129;DHT22;553;51.038;7.216;2024-03-08T13:26:10;12.00;74.40
1129;DHT22;553;51.038;7.216;2024-03-08T13:28:48;12.10;75.60
1129;DHT22;553;51.038;7.216;2024-03-08T13:31:15;12.10;75.30
1129;DHT22;553;51.038;7.216;2024-03-08T13:33:42;12.00;75.00
1129;DHT22;553;51.038;7.216;2024-03-08T13:36:12;12.00;75.70
1129;DHT22;553;51.038;7.216;2024-03-08T13:38:47;12.00;75.90
1129;DHT22;553;51.038;7.216;2024-03-08T13:41:15;11.90;75.10
1129;DHT22;553;51.038;7.216;2024-03-08T13:43:46;11.80;74.60
1129;DHT22;553;51.038;7.216;2024-03-08T13:46:13;11.80;75.60
1129;DHT22;553;51.038;7.216;2024-03-08T13:48:40;11.60;75.60
1129;DHT22;553;51.038;7.216;2024-03-08T13:51:07;11.50;76.00
1129;DHT22;553;51.038;7.216;2024-03-08T13:53:39;11.30;76.00
1129;DHT22;553;51.038;7.216;2024-03-08T13:56:08;11.10;76.00
1129;DHT22;553;51.038;7.216;2024-03-08T13:58:37;11.20;77.10
1129;DHT22;553;51.038;7.216;2024-03-08T14:01:06;11.20;77.20
1129;DHT22;553;51.038;7.216;2024-03-08T16:55:11;10.70;78.80
1129;DHT22;553;51.038;7.216;2024-03-08T16:57:42;10.60;78.90
1129;DHT22;553;51.038;7.216;2024-03-08T17:00:20;10.70;79.40
1129;DHT22;553;51.038;7.216;2024-03-08T17:03:03;10.60;79.40
1129;DHT22;553;51.038;7.216;2024-03-08T17:05:37;10.50;79.90
1129;DHT22;553;51.038;7.216;2024-03-08T17:08:06;10.50;79.60
1129;DHT22;553;51.038;7.216;2024-03-08T17:10:34;10.50;79.90
1129;DHT22;553;51.038;7.216;2024-03-08T17:13:04;10.40;80.00
1129;DHT22;553;51.038;7.216;2024-03-08T17:15:34;10.30;80.10
1129;DHT22;553;51.038;7.216;2024-03-08T17:18:04;10.30;80.10
1129;DHT22;553;51.038;7.216;2024-03-08T17:20:37;10.20;80.80
1129;DHT22;553;51.038;7.216;2024-03-08T17:23:08;10.20;80.30
1129;DHT22;553;51.038;7.216;2024-03-08T17:25:36;10.20;81.20
1129;DHT22;553;51.038;7.216;2024-03-08T17:28:05;10.20;80.80
1129;DHT22;553;51.038;7.216;2024-03-08T17:30:33;10.20;81.00
1129;DHT22;553;51.038;7.216;2024-03-08T17:33:04;10.20;80.90
1129;DHT22;553;51.038;7.216;2024-03-08T17:35:37;10.20;81.10
1129;DHT22;553;51.038;7.216;2024-03-08T17:38:07;10.20;81.00
1129;DHT22;553;51.038;7.216;2024-03-08T17:40:39;10.00;81.40
1129;DHT22;553;51.038;7.216;2024-03-08T17:43:09;10.00;81.50
1129;DHT22;553;51.038;7.216;2024-03-08T17:45:42;9.90;81.40
1129;DHT22;553;51.038;7.216;2024-03-08T17:48:13;9.80;81.50
1129;DHT22;553;51.038;7.216;2024-03-08T17:50:48;9.80;82.00
1129;DHT22;553;51.038;7.216;2024-03-08T17:53:20;9.70;81.90
1129;DHT22;553;51.038;7.216;2024-03-08T17:55:47;9.60;81.90
1129;DHT22;553;51.038;7.216;2024-03-08T17:58:18;9.60;82.30
1129;DHT22;553;51.038;7.216;2024-03-08T18:00:45;9.60;82.00
1129;DHT22;553;51.038;7.216;2024-03-08T18:03:12;9.60;82.30
1129;DHT22;553;51.038;7.216;2024-03-08T18:05:42;9.50;82.20
1129;DHT22;553;51.038;7.216;2024-03-08T18:08:12;9.60;82.40
1129;DHT22;553;51.038;7.216;2024-03-08T18:10:39;9.50;82.40
1129;DHT22;553;51.038;7.216;2024-03-08T18:13:08;9.40;82.70
1129;DHT22;553;51.038;7.216;2024-03-08T18:15:45;9.40;82.70
1129;DHT22;553;51.038;7.216;2024-03-08T18:18:14;9.40;82.90
1129;DHT22;553;51.038;7.216;2024-03-08T18:20:42;9.40;83.20
1129;DHT22;553;51.038;7.216;2024-03-08T18:23:18;9.30;83.40
1129;DHT22;553;51.038;7.216;2024-03-08T18:25:50;9.30;83.60
1129;DHT22;553;51.038;7.216;2024-03-08T18:28:17;9.20;83.80
1129;DHT22;553;51.038;7.216;2024-03-08T18:30:46;9.10;84.10
1129;DHT22;553;51.038;7.216;2024-03-08T18:33:16;9.00;84.30
1129;DHT22;553;51.038;7.216;2024-03-08T18:35:44;9.00;84.60
1129;DHT22;553;51.038;7.216;2024-03-08T18:38:13;9.00;85.10
1129;DHT22;553;51.038;7.216;2024-03-08T18:40:40;9.00;85.30
1129;DHT22;553;51.038;7.216;2024-03-08T18:43:13;8.90;85.60
1129;DHT22;553;51.038;7.216;2024-03-08T18:45:40;8.80;85.60
1129;DHT22;553;51.038;7.216;2024-03-08T18:48:09;8.80;85.90
1129;DHT22;553;51.038;7.216;2024-03-08T18:50:39;8.70;85.90
1129;DHT22;553;51.038;7.216;2024-03-08T18:53:06;8.60;86.00
1129;DHT22;553;51.038;7.216;2024-03-08T18:55:34;8.50;86.40
1129;DHT22;553;51.038;7.216;2024-03-08T18:58:02;8.50;86.60
1129;DHT22;553;51.038;7.216;2024-03-08T19:00:30;8.50;86.50
1129;DHT22;553;51.038;7.216;2024-03-08T19:03:06;8.50;86.80
1129;DHT22;553;51.038;7.216;2024-03-08T19:05:37;8.40;86.80
1129;DHT22;553;51.038;7.216;2024-03-08T19:08:08;8.40;87.10
1129;DHT22;553;51.038;7.216;2024-03-08T19:10:36;8.30;87.20
1129;DHT22;553;51.038;7.216;2024-03-08T19:13:05;8.30;87.40
1129;DHT22;553;51.038;7.216;2024-03-08T19:15:35;8.20;87.50
1129;DHT22;553;51.038;7.216;2024-03-08T19:18:02;8.30;87.80
1129;DHT22;553;51.038;7.216;2024-03-08T19:20:32;8.20;87.60
1129;DHT22;553;51.038;7.216;2024-03-08T19:23:00;8.20;87.80
1129;DHT22;553;51.038;7.216;2024-03-08T19:25:30;8.20;87.60
1129;DHT22;553;51.038;7.216;2024-03-08T19:28:02;8.20;87.70
1129;DHT22;553;51.038;7.216;2024-03-08T19:30:32;8.20;87.90
1129;DHT22;553;51.038;7.216;2024-03-08T19:33:01;8.20;87.70
1129;DHT22;553;51.038;7.216;2024-03-08T19:35:29;8.20;87.70
1129;DHT22;553;51.038;7.216;2024-03-08T19:37:58;8.20;87.60
1129;DHT22;553;51.038;7.216;2024-03-08T19:40:27;8.20;87.80
1129;DHT22;553;51.038;7.216;2024-03-08T19:43:02;8.20;88.00
1129;DHT22;553;51.038;7.216;2024-03-08T19:45:30;8.10;88.10